createdAt,value
2022-12-22T00:02:43.700Z,2.30
2022-12-22T00:05:36.362Z,2.40
2022-12-22T00:08:21.464Z,2.20
2022-12-22T00:11:06.939Z,2.28
2022-12-22T00:13:51.538Z,2.00
2022-12-22T00:16:36.363Z,2.10
2022-12-22T00:19:21.722Z,2.30
2022-12-22T00:22:06.360Z,2.20
2022-12-22T00:24:51.013Z,2.20
2022-12-22T00:27:45.674Z,2.30
2022-12-22T00:30:32.615Z,2.20
2022-12-22T00:33:17.745Z,2.30
2022-12-22T00:36:02.219Z,2.30
2022-12-22T00:38:46.821Z,2.20
2022-12-22T00:41:31.623Z,2.23
2022-12-22T00:44:16.876Z,2.17
2022-12-22T00:47:01.953Z,2.20
2022-12-22T00:49:46.614Z,2.00
2022-12-22T00:52:31.675Z,2.10
2022-12-22T00:55:16.241Z,2.20
2022-12-22T00:58:01.198Z,2.10
2022-12-22T01:00:45.969Z,2.20
2022-12-22T01:03:30.802Z,2.23
2022-12-22T01:06:17.144Z,2.23
2022-12-22T01:09:02.195Z,2.50
2022-12-22T01:11:47.158Z,2.30
2022-12-22T01:14:32.288Z,2.40
2022-12-22T01:17:17.040Z,2.30
2022-12-22T01:20:01.861Z,2.60
2022-12-22T01:22:46.442Z,2.60
2022-12-22T01:25:33.402Z,2.30
2022-12-22T01:28:17.918Z,2.47
2022-12-22T01:31:03.073Z,2.40
2022-12-22T01:33:47.935Z,2.40
2022-12-22T01:36:32.724Z,2.33
2022-12-22T01:39:17.409Z,2.40
2022-12-22T01:42:02.105Z,2.20
2022-12-22T01:44:46.847Z,2.20
2022-12-22T01:47:51.379Z,2.20
2022-12-22T01:50:48.024Z,2.10
2022-12-22T01:53:35.853Z,2.20
2022-12-22T01:56:21.740Z,2.10
2022-12-22T01:59:13.506Z,2.05
2022-12-22T02:01:58.450Z,2.20
2022-12-22T02:04:45.253Z,2.25
2022-12-22T02:07:52.669Z,2.20
2022-12-22T02:18:49.021Z,2.20
2022-12-22T02:21:36.344Z,2.20
2022-12-22T02:24:45.074Z,2.10
2022-12-22T02:27:30.203Z,2.10
2022-12-22T02:30:16.837Z,2.17
2022-12-22T02:33:08.941Z,2.27
2022-12-22T02:36:09.399Z,2.30
2022-12-22T02:39:18.536Z,2.20
2022-12-22T02:43:15.964Z,2.10
2022-12-22T02:46:28.073Z,2.17
2022-12-22T02:49:19.605Z,2.20
2022-12-22T02:52:06.625Z,2.03
2022-12-22T02:54:51.813Z,2.20
2022-12-22T02:57:37.506Z,2.23
2022-12-22T03:00:23.131Z,2.30
2022-12-22T03:03:08.341Z,2.20
2022-12-22T03:05:53.381Z,2.10
2022-12-22T03:08:37.806Z,2.10
2022-12-22T03:11:22.427Z,2.20
2022-12-22T03:14:07.204Z,2.10
2022-12-22T03:16:51.694Z,2.00
2022-12-22T03:19:37.429Z,2.10
2022-12-22T03:22:22.091Z,2.10
2022-12-22T03:25:06.887Z,2.10
2022-12-22T03:27:33.022Z,2.00
2022-12-22T03:30:00.144Z,2.10
2022-12-22T03:32:26.262Z,2.00
2022-12-22T03:34:55.394Z,2.08
2022-12-22T03:37:21.827Z,2.00
2022-12-22T03:39:47.972Z,2.10
2022-12-22T03:42:32.786Z,2.10
2022-12-22T03:45:17.268Z,2.20
2022-12-22T03:47:43.396Z,2.10
2022-12-22T03:50:11.027Z,2.00
2022-12-22T03:52:37.247Z,1.90
2022-12-22T03:55:04.568Z,2.00
2022-12-22T03:57:31.146Z,2.00
2022-12-22T03:59:57.461Z,2.00
2022-12-22T04:02:23.823Z,2.10
2022-12-22T04:04:50.129Z,2.10
2022-12-22T04:07:16.244Z,2.07
2022-12-22T04:12:53.562Z,2.00
2022-12-22T04:15:21.455Z,2.10
2022-12-22T04:17:47.607Z,2.10
2022-12-22T04:20:13.843Z,2.10
2022-12-22T04:22:40.685Z,2.10
2022-12-22T04:25:07.913Z,2.17
2022-12-22T04:27:34.106Z,2.10
2022-12-22T04:30:00.617Z,2.12
2022-12-22T04:32:26.852Z,2.10
2022-12-22T04:34:52.991Z,2.15
2022-12-22T04:37:19.212Z,2.10
2022-12-22T04:39:45.396Z,2.00
2022-12-22T04:42:11.655Z,2.20
2022-12-22T04:44:37.781Z,2.10
2022-12-22T04:47:04.021Z,2.10
2022-12-22T04:49:30.338Z,2.10
2022-12-22T04:51:56.561Z,2.10
2022-12-22T04:54:23.085Z,2.15
2022-12-22T04:56:49.941Z,2.10
2022-12-22T04:59:17.087Z,2.10
2022-12-22T05:01:43.399Z,2.10
2022-12-22T05:04:09.601Z,2.10
2022-12-22T05:06:36.142Z,2.20
2022-12-22T05:09:02.275Z,2.17
2022-12-22T05:11:28.497Z,2.20
2022-12-22T05:13:54.633Z,2.28
2022-12-22T05:16:20.879Z,2.10
2022-12-22T05:18:47.533Z,2.10
2022-12-22T05:21:18.377Z,2.30
2022-12-22T05:23:44.951Z,2.20
2022-12-22T05:26:11.648Z,2.30
2022-12-22T05:28:37.867Z,2.22
2022-12-22T05:31:14.008Z,2.30
2022-12-22T05:33:40.355Z,2.35
2022-12-22T05:36:07.441Z,2.27
2022-12-22T05:38:33.731Z,2.30
2022-12-22T05:41:04.072Z,2.20
2022-12-22T05:43:34.385Z,2.13
2022-12-22T05:46:04.563Z,2.30
2022-12-22T05:48:35.512Z,2.20
2022-12-22T05:51:04.092Z,2.30
2022-12-22T05:53:30.359Z,2.10
2022-12-22T05:55:57.852Z,2.20
2022-12-22T05:58:24.140Z,2.10
2022-12-22T06:00:50.602Z,2.15
2022-12-22T06:03:18.078Z,2.00
2022-12-22T06:05:44.305Z,2.20
2022-12-22T06:08:10.568Z,2.00
2022-12-22T06:10:36.706Z,2.12
2022-12-22T06:13:02.870Z,2.20
2022-12-22T06:15:29.034Z,2.05
2022-12-22T06:17:55.279Z,2.20
2022-12-22T06:20:21.503Z,2.20
2022-12-22T06:22:47.679Z,2.10
2022-12-22T06:25:18.517Z,2.10
2022-12-22T06:27:46.151Z,2.10
2022-12-22T06:30:13.609Z,2.17
2022-12-22T06:32:40.053Z,2.15
2022-12-22T06:35:07.576Z,2.20
2022-12-22T06:37:33.804Z,2.20
2022-12-22T06:39:59.982Z,2.22
2022-12-22T06:42:44.688Z,2.20
2022-12-22T06:45:11.226Z,2.20
2022-12-22T06:47:37.414Z,2.00
2022-12-22T06:50:04.864Z,1.90
2022-12-22T06:52:31.163Z,1.90
2022-12-22T06:54:57.327Z,2.00
2022-12-22T06:57:25.101Z,2.00
2022-12-22T06:59:57.229Z,2.10
2022-12-22T07:02:24.222Z,1.90
2022-12-22T07:04:50.565Z,1.90
2022-12-22T07:07:16.758Z,2.10
2022-12-22T07:09:42.984Z,2.10
2022-12-22T07:12:09.466Z,2.00
2022-12-22T07:14:35.607Z,2.10
2022-12-22T07:17:02.007Z,2.00
2022-12-22T07:19:28.243Z,1.90
2022-12-22T07:21:54.744Z,2.10
2022-12-22T07:24:25.113Z,2.00
2022-12-22T07:26:51.965Z,2.03
2022-12-22T07:29:18.243Z,1.90
2022-12-22T07:31:45.237Z,1.90
2022-12-22T07:34:11.656Z,1.90
2022-12-22T07:36:38.002Z,2.00
2022-12-22T07:39:04.476Z,2.00
2022-12-22T07:41:49.199Z,2.10
2022-12-22T07:44:15.505Z,2.00
2022-12-22T07:46:41.851Z,1.90
2022-12-22T07:49:27.708Z,2.00
2022-12-22T07:51:56.073Z,2.00
2022-12-22T07:54:23.309Z,2.08
2022-12-22T07:56:49.526Z,2.10
2022-12-22T07:59:15.851Z,2.00
2022-12-22T08:01:42.311Z,2.10
2022-12-22T08:04:10.169Z,2.10
2022-12-22T08:06:37.046Z,2.00
2022-12-22T08:09:03.575Z,2.10
2022-12-22T08:11:29.905Z,2.03
2022-12-22T08:14:01.348Z,2.10
2022-12-22T08:16:28.648Z,2.20
2022-12-22T08:18:55.917Z,2.10
2022-12-22T08:21:22.985Z,2.00
2022-12-22T08:23:49.443Z,2.10
2022-12-22T08:26:29.930Z,2.00
2022-12-22T08:29:08.102Z,2.10
2022-12-22T08:31:34.657Z,2.05
2022-12-22T08:34:02.933Z,2.00
2022-12-22T08:36:30.303Z,2.00
2022-12-22T08:38:57.627Z,2.10
2022-12-22T08:41:42.117Z,2.20
2022-12-22T08:44:08.421Z,2.10
2022-12-22T08:46:35.312Z,2.10
2022-12-22T08:49:01.800Z,2.10
2022-12-22T08:51:27.992Z,2.10
2022-12-22T08:54:09.436Z,2.05
2022-12-22T08:56:35.859Z,2.10
2022-12-22T08:59:04.926Z,2.05
2022-12-22T09:01:32.774Z,2.00
2022-12-22T09:03:59.221Z,2.10
2022-12-22T09:06:27.657Z,2.00
2022-12-22T09:08:59.377Z,2.10
2022-12-22T09:11:26.964Z,2.40
2022-12-22T09:13:55.039Z,2.17
2022-12-22T09:16:22.191Z,2.20
2022-12-22T09:18:50.217Z,2.10
2022-12-22T09:21:16.775Z,2.20
2022-12-22T09:23:43.610Z,2.10
2022-12-22T09:26:15.025Z,2.00
2022-12-22T09:28:48.148Z,2.00
2022-12-22T09:31:16.858Z,2.10
2022-12-22T09:33:43.473Z,2.00
2022-12-22T09:36:11.783Z,2.00
2022-12-22T09:38:39.293Z,2.00
2022-12-22T09:42:57.900Z,2.10
2022-12-22T09:45:24.492Z,2.00
2022-12-22T09:47:53.403Z,2.10
2022-12-22T09:50:25.338Z,2.20
2022-12-22T09:53:02.763Z,2.00
2022-12-22T09:55:43.339Z,2.10
2022-12-22T09:58:29.545Z,2.10
2022-12-22T10:02:41.186Z,2.08
2022-12-22T10:05:38.638Z,2.00
2022-12-22T10:08:10.512Z,2.00
2022-12-22T10:10:36.944Z,2.00
2022-12-22T10:13:03.995Z,2.00
2022-12-22T10:15:38.034Z,2.10
2022-12-22T10:18:15.569Z,2.05
2022-12-22T10:20:43.182Z,2.10
2022-12-22T10:23:28.618Z,2.10
2022-12-22T10:26:50.818Z,2.00
2022-12-22T10:29:17.187Z,2.00
2022-12-22T10:32:13.518Z,2.10
2022-12-22T10:35:02.265Z,2.10
2022-12-22T10:37:38.143Z,2.20
2022-12-22T10:40:21.959Z,2.10
2022-12-22T10:42:53.632Z,2.00
2022-12-22T10:45:21.747Z,2.00
2022-12-22T10:47:49.339Z,2.20
2022-12-22T10:50:15.998Z,2.10
2022-12-22T10:52:52.689Z,2.10
2022-12-22T10:55:21.418Z,2.10
2022-12-22T10:57:48.453Z,2.20
2022-12-22T11:01:00.153Z,2.17
2022-12-22T11:03:30.736Z,2.00
2022-12-22T11:05:58.196Z,2.10
2022-12-22T11:08:24.810Z,2.20
2022-12-22T11:11:11.013Z,2.28
2022-12-22T11:13:54.937Z,2.30
2022-12-22T11:18:45.041Z,2.10
2022-12-22T11:21:28.116Z,2.10
2022-12-22T11:24:29.269Z,2.20
2022-12-22T11:27:06.625Z,2.30
2022-12-22T11:29:50.395Z,2.30
2022-12-22T11:37:41.391Z,2.30
2022-12-22T11:40:54.373Z,2.10
2022-12-22T11:45:31.415Z,2.15
2022-12-22T11:51:07.620Z,2.08
2022-12-22T11:54:11.523Z,2.00
2022-12-22T11:56:44.722Z,2.10
2022-12-22T12:00:15.294Z,2.25
2022-12-22T12:03:09.629Z,2.20
2022-12-22T12:06:06.040Z,2.12
2022-12-22T12:08:58.908Z,2.17
2022-12-22T12:11:47.334Z,2.20
2022-12-22T12:15:55.740Z,2.20
2022-12-22T12:25:21.054Z,2.40
2022-12-22T12:28:15.507Z,2.20
2022-12-22T12:30:52.029Z,2.30
2022-12-22T12:33:35.702Z,2.20
2022-12-22T12:37:41.781Z,2.60
2022-12-22T12:42:42.166Z,2.20
2022-12-22T12:45:40.616Z,2.20
2022-12-22T12:51:46.842Z,2.30
2022-12-22T12:57:46.081Z,2.20
2022-12-22T13:00:55.383Z,2.30
2022-12-22T13:04:02.446Z,2.33
2022-12-22T13:07:03.992Z,2.65
2022-12-22T13:12:48.597Z,2.87
2022-12-22T13:15:34.600Z,2.85
2022-12-22T13:18:49.973Z,2.80
2022-12-22T13:24:30.632Z,2.40
2022-12-22T13:27:01.795Z,2.40
2022-12-22T13:29:46.198Z,2.30
2022-12-22T13:32:39.791Z,2.25
2022-12-22T13:35:33.080Z,2.30
2022-12-22T13:38:01.236Z,2.30
2022-12-22T13:40:30.299Z,2.40
2022-12-22T13:43:13.910Z,2.30
2022-12-22T13:45:47.079Z,2.30
2022-12-22T13:48:21.525Z,2.30
2022-12-22T13:50:55.480Z,2.28
2022-12-22T13:56:42.735Z,2.30
2022-12-22T13:59:39.439Z,2.40
2022-12-22T14:02:24.354Z,2.33
2022-12-22T14:05:12.743Z,2.40
2022-12-22T14:07:39.689Z,2.30
2022-12-22T14:10:07.619Z,2.20
2022-12-22T14:12:41.988Z,2.20
2022-12-22T14:15:11.317Z,2.33
2022-12-22T14:17:39.178Z,2.40
2022-12-22T14:21:20.489Z,2.30
2022-12-22T14:23:47.370Z,2.20
2022-12-22T14:26:16.708Z,2.20
2022-12-22T14:28:50.441Z,2.17
2022-12-22T14:31:17.110Z,2.20
2022-12-22T14:33:54.023Z,2.17
2022-12-22T14:36:25.315Z,2.17
2022-12-22T14:38:59.119Z,2.20
2022-12-22T14:41:41.206Z,2.40
2022-12-22T14:44:41.458Z,2.30
2022-12-22T14:47:18.920Z,2.17
2022-12-22T14:50:19.949Z,2.30
2022-12-22T14:53:05.544Z,2.20
2022-12-22T14:55:37.870Z,2.20
2022-12-22T14:58:32.680Z,2.20
2022-12-22T15:02:53.548Z,2.20
2022-12-22T15:05:28.970Z,2.20
2022-12-22T15:08:07.269Z,2.20
2022-12-22T15:10:37.970Z,2.20
2022-12-22T15:13:05.923Z,2.20
2022-12-22T15:15:33.027Z,2.10
2022-12-22T15:17:59.414Z,2.95
2022-12-22T15:20:26.555Z,2.50
2022-12-22T15:22:54.020Z,2.37
2022-12-22T15:25:24.018Z,2.10
2022-12-22T15:27:52.090Z,2.20
2022-12-22T15:30:28.139Z,2.20
2022-12-22T15:32:55.649Z,2.30
2022-12-22T15:35:33.310Z,2.28
2022-12-22T15:38:00.203Z,2.30
2022-12-22T15:40:27.240Z,2.30
2022-12-22T15:42:53.479Z,2.20
2022-12-22T15:45:21.335Z,2.10
2022-12-22T15:47:54.416Z,2.10
2022-12-22T15:50:35.054Z,2.30
2022-12-22T15:53:04.818Z,2.30
2022-12-22T15:55:31.597Z,2.20
2022-12-22T15:57:58.171Z,2.20
2022-12-22T16:00:24.851Z,2.20
2022-12-22T16:02:51.330Z,2.30
2022-12-22T16:05:18.118Z,2.20
2022-12-22T16:07:44.355Z,2.25
2022-12-22T16:10:27.662Z,2.12
2022-12-22T16:13:00.451Z,2.22
2022-12-22T16:15:27.594Z,2.10
2022-12-22T16:17:54.379Z,2.40
2022-12-22T16:20:21.191Z,2.30
2022-12-22T16:22:48.220Z,2.40
2022-12-22T16:25:17.725Z,2.20
2022-12-22T16:27:47.249Z,2.30
2022-12-22T16:30:24.960Z,2.10
2022-12-22T16:32:52.825Z,2.20
2022-12-22T16:35:24.427Z,2.40
2022-12-22T16:37:50.725Z,2.25
2022-12-22T16:40:18.588Z,2.30
2022-12-22T16:45:43.922Z,2.30
2022-12-22T16:48:25.373Z,2.30
2022-12-22T16:50:51.700Z,2.30
2022-12-22T16:53:18.903Z,2.40
2022-12-22T16:55:45.285Z,2.20
2022-12-22T16:58:13.836Z,2.30
2022-12-22T17:00:42.054Z,2.30
2022-12-22T17:03:24.901Z,2.30
2022-12-22T17:05:52.668Z,2.20
2022-12-22T17:08:36.182Z,2.30
2022-12-22T17:11:10.173Z,2.20
2022-12-22T17:13:38.224Z,2.20
2022-12-22T17:16:04.921Z,2.20
2022-12-22T17:18:31.920Z,2.20
2022-12-22T17:20:58.679Z,2.30
2022-12-22T17:23:39.923Z,2.35
2022-12-22T17:26:08.232Z,2.30
2022-12-22T17:28:35.883Z,2.40
2022-12-22T17:31:02.203Z,2.35
2022-12-22T17:33:28.554Z,2.37
2022-12-22T17:35:55.775Z,2.20
2022-12-22T17:38:24.045Z,2.30
2022-12-22T17:40:50.658Z,2.40
2022-12-22T17:43:17.927Z,2.40
2022-12-22T17:45:47.444Z,2.53
2022-12-22T17:48:14.294Z,2.40
2022-12-22T17:50:41.493Z,2.35
2022-12-22T17:53:14.125Z,2.40
2022-12-22T17:56:07.336Z,2.20
2022-12-22T17:58:34.832Z,2.40
2022-12-22T18:01:00.972Z,2.40
2022-12-22T18:03:27.316Z,2.30
2022-12-22T18:05:54.448Z,2.40
2022-12-22T18:08:20.783Z,2.20
2022-12-22T18:10:46.928Z,2.20
2022-12-22T18:13:19.181Z,2.30
2022-12-22T18:15:46.675Z,2.40
2022-12-22T18:18:16.540Z,2.40
2022-12-22T18:20:43.014Z,2.20
2022-12-22T18:23:16.978Z,2.35
2022-12-22T18:25:43.496Z,2.40
2022-12-22T18:28:13.213Z,2.28
2022-12-22T18:30:39.447Z,2.40
2022-12-22T18:33:05.999Z,2.40
2022-12-22T18:35:32.311Z,2.50
2022-12-22T18:37:58.508Z,2.40
2022-12-22T18:40:44.271Z,2.40
2022-12-22T18:43:13.620Z,2.47
2022-12-22T18:45:41.420Z,2.47
2022-12-22T18:48:08.526Z,2.40
2022-12-22T18:50:34.758Z,2.50
2022-12-22T18:53:14.209Z,2.83
2022-12-22T18:55:40.751Z,2.65
2022-12-22T18:58:10.370Z,2.70
2022-12-22T19:00:38.334Z,2.55
2022-12-22T19:03:12.227Z,2.67
2022-12-22T19:05:41.597Z,2.70
2022-12-22T19:08:16.292Z,2.70
2022-12-22T19:11:27.200Z,2.60
2022-12-22T19:13:54.592Z,2.70
2022-12-22T19:16:26.007Z,2.90
2022-12-22T19:18:53.164Z,2.75
2022-12-22T19:21:20.584Z,2.95
2022-12-22T19:23:49.035Z,2.97
2022-12-22T19:26:24.050Z,3.00
2022-12-22T19:28:57.472Z,2.85
2022-12-22T19:31:25.999Z,2.97
2022-12-22T19:33:54.081Z,2.75
2022-12-22T19:36:25.982Z,2.80
2022-12-22T19:39:03.248Z,2.83
2022-12-22T19:41:52.736Z,2.80
2022-12-22T19:44:24.293Z,2.78
2022-12-22T19:46:52.075Z,2.90
2022-12-22T19:49:42.489Z,2.65
2022-12-22T19:52:10.200Z,2.83
2022-12-22T19:54:37.330Z,2.90
2022-12-22T19:57:06.640Z,3.05
2022-12-22T19:59:40.647Z,3.00
2022-12-22T20:02:29.090Z,2.75
2022-12-22T20:04:55.821Z,2.75
2022-12-22T20:07:26.018Z,2.97
2022-12-22T20:09:53.265Z,3.05
2022-12-22T20:12:32.805Z,3.05
2022-12-22T20:15:00.388Z,2.85
2022-12-22T20:17:28.027Z,2.75
2022-12-22T20:19:54.791Z,3.05
2022-12-22T20:22:22.716Z,2.83
2022-12-22T20:24:50.066Z,2.72
2022-12-22T20:27:33.973Z,2.65
2022-12-22T20:30:04.309Z,2.70
2022-12-22T20:32:32.658Z,2.65
2022-12-22T20:35:00.381Z,2.80
2022-12-22T20:37:28.283Z,2.80
2022-12-22T20:39:54.752Z,2.80
2022-12-22T20:42:23.217Z,2.72
2022-12-22T20:45:02.016Z,2.80
2022-12-22T20:47:31.655Z,2.90
2022-12-22T20:49:58.614Z,3.10
2022-12-22T20:52:26.540Z,3.00
2022-12-22T20:54:53.954Z,3.00
2022-12-22T20:57:20.818Z,3.10
2022-12-22T20:59:53.977Z,3.30
2022-12-22T21:02:24.018Z,2.90
2022-12-22T21:04:52.540Z,3.10
2022-12-22T21:07:18.917Z,3.40
2022-12-22T21:09:45.582Z,3.30
2022-12-22T21:12:12.232Z,3.35
2022-12-22T21:14:40.113Z,3.10
2022-12-22T21:17:15.852Z,2.78
2022-12-22T21:19:42.336Z,2.70
2022-12-22T21:22:09.602Z,2.70
2022-12-22T21:24:36.393Z,2.60
2022-12-22T21:27:04.904Z,2.70
2022-12-22T21:29:32.453Z,2.50
2022-12-22T21:32:02.038Z,2.50
2022-12-22T21:34:29.302Z,2.60
2022-12-22T21:36:59.016Z,2.47
2022-12-22T21:39:39.412Z,2.65
2022-12-22T21:42:06.924Z,2.60
2022-12-22T21:44:34.454Z,2.50
2022-12-22T21:47:00.984Z,2.60
2022-12-22T21:49:29.394Z,2.58
2022-12-22T21:51:55.859Z,2.53
2022-12-22T21:54:23.252Z,2.55
2022-12-22T21:56:50.796Z,2.60
2022-12-22T21:59:17.111Z,2.70
2022-12-22T22:01:44.810Z,2.58
2022-12-22T22:04:11.571Z,2.60
2022-12-22T22:06:37.927Z,2.53
2022-12-22T22:09:05.433Z,2.60
2022-12-22T22:11:31.768Z,2.60
2022-12-22T22:13:59.011Z,2.70
2022-12-22T22:16:27.877Z,2.78
2022-12-22T22:18:54.381Z,2.60
2022-12-22T22:21:20.666Z,2.67
2022-12-22T22:23:46.858Z,2.80
2022-12-22T22:26:13.119Z,2.60
2022-12-22T22:28:39.447Z,2.60
2022-12-22T22:31:10.200Z,2.80
2022-12-22T22:33:36.813Z,2.67
2022-12-22T22:36:07.365Z,2.55
2022-12-22T22:38:34.195Z,2.50
2022-12-22T22:41:03.161Z,2.37
2022-12-22T22:43:29.755Z,2.50
2022-12-22T22:45:55.986Z,2.70
2022-12-22T22:48:22.534Z,2.72
2022-12-22T22:50:49.196Z,2.83
2022-12-22T22:53:15.758Z,2.87
2022-12-22T22:55:41.975Z,2.60
2022-12-22T22:58:10.774Z,2.40
2022-12-22T23:00:37.335Z,2.40
2022-12-22T23:03:04.532Z,2.30
2022-12-22T23:05:30.886Z,2.20
2022-12-22T23:07:57.305Z,2.10
2022-12-22T23:10:23.502Z,2.20
2022-12-22T23:12:49.733Z,2.20
2022-12-22T23:15:15.943Z,2.28
2022-12-22T23:17:42.751Z,2.28
2022-12-22T23:20:09.514Z,2.17
2022-12-22T23:22:35.707Z,2.23
2022-12-22T23:25:02.066Z,2.30
2022-12-22T23:27:30.342Z,2.33
2022-12-22T23:29:57.238Z,2.22
2022-12-22T23:32:23.752Z,2.30
2022-12-22T23:34:50.009Z,2.28
2022-12-22T23:37:19.533Z,2.40
2022-12-22T23:39:46.252Z,2.30
2022-12-22T23:42:12.415Z,2.40
2022-12-22T23:44:38.710Z,2.25
2022-12-22T23:47:04.903Z,2.20
2022-12-22T23:49:31.236Z,2.20
2022-12-22T23:51:57.488Z,2.10
2022-12-22T23:54:24.029Z,2.05
2022-12-22T23:56:50.295Z,2.10
2022-12-22T23:59:16.584Z,2.20
